Time,TemperatureF,DewpointF,PressureIn,WindDirection,WindDirectionDegrees,WindSpeedMPH,WindSpeedGustMPH,Humidity,HourlyPrecipIn,Conditions,Clouds,dailyrainin,SolarRadiationWatts/m^2,SoftwareType,DateUTC
2013-02-28 00:02:00,32.0,30.0,-100.00,NW,306,5.0,11.0,91,0.00,,,0.00,0.000000,,2013-02-28 05:02:00,
2013-02-28 00:32:00,31.0,28.0,-100.00,WNW,286,6.0,14.0,87,0.00,,,0.00,0.000000,,2013-02-28 05:32:00,
2013-02-28 00:43:00,31.0,28.0,-100.00,WNW,286,6.0,14.0,87,0.00,,,0.00,0.000000,,2013-02-28 05:43:00,
2013-02-28 00:52:00,31.0,28.0,-100.00,WNW,286,6.0,14.0,87,0.00,,,0.00,0.000000,,2013-02-28 05:52:00,
2013-02-28 01:01:00,31.0,28.0,-100.00,WNW,286,6.0,14.0,87,0.00,,,0.00,0.000000,,2013-02-28 06:01:00,
2013-02-28 01:32:00,30.0,24.0,-100.00,WNW,299,7.0,17.0,79,0.00,,,0.00,0.000000,,2013-02-28 06:32:00,
2013-02-28 01:42:00,30.0,24.0,-100.00,WNW,299,7.0,17.0,79,0.00,,,0.00,0.000000,,2013-02-28 06:42:00,
2013-02-28 01:52:00,30.0,24.0,-100.00,WNW,299,7.0,17.0,79,0.00,,,0.00,0.000000,,2013-02-28 06:52:00,
2013-02-28 02:01:00,30.0,24.0,-100.00,WNW,299,7.0,17.0,79,0.00,,,0.00,0.000000,,2013-02-28 07:01:00,
2013-02-28 02:32:00,29.0,22.0,-100.00,WNW,297,6.0,12.0,76,0.00,,,0.00,0.000000,,2013-02-28 07:32:00,
2013-02-28 02:42:00,29.0,22.0,-100.00,WNW,297,6.0,12.0,76,0.00,,,0.00,0.000000,,2013-02-28 07:42:00,
2013-02-28 02:52:00,29.0,22.0,-100.00,WNW,297,6.0,12.0,76,0.00,,,0.00,0.000000,,2013-02-28 07:52:00,
2013-02-28 03:01:00,29.0,22.0,-100.00,WNW,297,6.0,12.0,76,0.00,,,0.00,0.000000,,2013-02-28 08:01:00,
2013-02-28 03:32:00,28.0,22.0,-100.00,WNW,288,7.0,15.0,78,0.00,,,0.00,0.000000,,2013-02-28 08:32:00,
2013-02-28 03:42:00,28.0,22.0,-100.00,WNW,288,7.0,15.0,78,0.00,,,0.00,0.000000,,2013-02-28 08:42:00,
2013-02-28 03:53:00,28.0,22.0,-100.00,WNW,288,7.0,15.0,78,0.00,,,0.00,0.000000,,2013-02-28 08:53:00,
2013-02-28 04:03:00,28.0,22.0,-100.00,WNW,288,7.0,15.0,78,0.00,,,0.00,0.000000,,2013-02-28 09:03:00,
2013-02-28 04:32:00,27.0,22.0,-100.00,WNW,292,7.0,13.0,80,0.00,,,0.00,0.000000,,2013-02-28 09:32:00,
2013-02-28 04:42:00,27.0,22.0,-100.00,WNW,292,7.0,13.0,80,0.00,,,0.00,0.000000,,2013-02-28 09:42:00,
2013-02-28 04:52:00,27.0,22.0,-100.00,WNW,292,7.0,13.0,80,0.00,,,0.00,0.000000,,2013-02-28 09:52:00,
2013-02-28 05:02:00,27.0,22.0,-100.00,WNW,292,7.0,13.0,80,0.00,,,0.00,0.000000,,2013-02-28 10:02:00,
2013-02-28 05:32:00,26.0,20.0,-100.00,NW,309,6.0,20.0,79,0.00,,,0.00,0.000000,,2013-02-28 10:32:00,
2013-02-28 05:42:00,26.0,20.0,-100.00,NW,309,6.0,20.0,79,0.00,,,0.00,0.000000,,2013-02-28 10:42:00,
2013-02-28 05:52:00,26.0,20.0,-100.00,NW,309,6.0,20.0,79,0.00,,,0.00,0.000000,,2013-02-28 10:52:00,
2013-02-28 06:02:00,26.0,20.0,-100.00,NW,309,6.0,20.0,79,0.00,,,0.00,0.000000,,2013-02-28 11:02:00,
2013-02-28 06:32:00,25.0,18.0,-100.00,NW,323,7.0,16.0,74,0.00,,,0.00,0.000000,,2013-02-28 11:32:00,
2013-02-28 06:42:00,25.0,18.0,-100.00,NW,323,7.0,16.0,74,0.00,,,0.00,0.000000,,2013-02-28 11:42:00,
2013-02-28 06:53:00,25.0,18.0,-100.00,NW,323,7.0,16.0,74,0.00,,,0.00,0.000000,,2013-02-28 11:53:00,
2013-02-28 07:02:00,25.0,18.0,-100.00,NW,323,7.0,16.0,74,0.00,,,0.00,0.000000,,2013-02-28 12:02:00,
2013-02-28 07:32:00,25.0,19.0,-100.00,NW,309,6.0,12.0,79,0.00,,,0.00,0.000000,,2013-02-28 12:32:00,
2013-02-28 07:42:00,25.0,19.0,-100.00,NW,309,6.0,12.0,79,0.00,,,0.00,0.000000,,2013-02-28 12:42:00,
2013-02-28 07:53:00,25.0,19.0,-100.00,NW,309,6.0,12.0,79,0.00,,,0.00,0.000000,,2013-02-28 12:53:00,
2013-02-28 08:02:00,25.0,19.0,-100.00,NW,309,6.0,12.0,79,0.00,,,0.00,0.000000,,2013-02-28 13:02:00,
2013-02-28 08:32:00,25.0,20.0,-100.00,WNW,300,7.0,16.0,81,0.00,,,0.00,10.000000,,2013-02-28 13:32:00,
2013-02-28 08:42:00,25.0,20.0,-100.00,WNW,300,7.0,16.0,81,0.00,,,0.00,10.000000,,2013-02-28 13:42:00,
2013-02-28 08:52:00,25.0,20.0,-100.00,WNW,300,7.0,16.0,81,0.00,,,0.00,10.000000,,2013-02-28 13:52:00,
2013-02-28 09:02:00,25.0,20.0,-100.00,WNW,300,7.0,16.0,81,0.00,,,0.00,10.000000,,2013-02-28 14:02:00,
2013-02-28 09:32:00,25.0,21.0,-100.00,WNW,299,5.0,16.0,83,0.00,,,0.00,29.000000,,2013-02-28 14:32:00,
2013-02-28 09:42:00,25.0,21.0,-100.00,WNW,299,5.0,16.0,83,0.00,,,0.00,29.000000,,2013-02-28 14:42:00,
2013-02-28 09:52:00,25.0,21.0,-100.00,WNW,299,5.0,16.0,83,0.00,,,0.00,29.000000,,2013-02-28 14:52:00,
2013-02-28 10:02:00,25.0,21.0,-100.00,WNW,299,5.0,16.0,83,0.00,,,0.00,29.000000,,2013-02-28 15:02:00,
2013-02-28 10:32:00,25.0,21.0,-100.00,NW,312,6.0,14.0,86,0.00,,,0.00,33.000000,,2013-02-28 15:32:00,
2013-02-28 10:42:00,25.0,21.0,-100.00,NW,312,6.0,14.0,86,0.00,,,0.00,33.000000,,2013-02-28 15:42:00,
2013-02-28 10:52:00,25.0,21.0,-100.00,NW,312,6.0,14.0,86,0.00,,,0.00,33.000000,,2013-02-28 15:52:00,
2013-02-28 11:02:00,25.0,21.0,-100.00,NW,312,6.0,14.0,86,0.00,,,0.00,33.000000,,2013-02-28 16:02:00,
2013-02-28 11:32:00,27.0,22.0,-100.00,NW,310,5.0,14.0,81,0.00,,,0.00,143.000000,,2013-02-28 16:32:00,
2013-02-28 11:43:00,27.0,22.0,-100.00,NW,310,5.0,14.0,81,0.00,,,0.00,143.000000,,2013-02-28 16:43:00,
2013-02-28 11:53:00,27.0,22.0,-100.00,NW,310,5.0,14.0,81,0.00,,,0.00,143.000000,,2013-02-28 16:53:00,
2013-02-28 12:02:00,27.0,22.0,-100.00,NW,310,5.0,14.0,81,0.00,,,0.00,143.000000,,2013-02-28 17:02:00,
2013-02-28 12:32:00,27.0,21.0,-100.00,WNW,300,6.0,14.0,78,0.00,,,0.00,206.000000,,2013-02-28 17:32:00,
2013-02-28 12:42:00,27.0,21.0,-100.00,WNW,300,6.0,14.0,78,0.00,,,0.00,206.000000,,2013-02-28 17:42:00,
2013-02-28 12:53:00,27.0,21.0,-100.00,WNW,300,6.0,14.0,78,0.00,,,0.00,206.000000,,2013-02-28 17:53:00,
2013-02-28 13:02:00,27.0,21.0,-100.00,WNW,300,6.0,14.0,78,0.00,,,0.00,206.000000,,2013-02-28 18:02:00,
2013-02-28 13:32:00,27.0,22.0,-100.00,NW,306,5.0,12.0,82,0.00,,,0.00,165.000000,,2013-02-28 18:32:00,
2013-02-28 13:42:00,27.0,22.0,-100.00,NW,306,5.0,12.0,82,0.00,,,0.00,165.000000,,2013-02-28 18:42:00,
2013-02-28 13:52:00,27.0,22.0,-100.00,NW,306,5.0,12.0,82,0.00,,,0.00,165.000000,,2013-02-28 18:52:00,
2013-02-28 14:02:00,27.0,22.0,-100.00,NW,306,5.0,12.0,82,0.00,,,0.00,165.000000,,2013-02-28 19:02:00,
2013-02-28 14:32:00,26.0,22.0,-100.00,NW,320,6.0,11.0,84,0.00,,,0.00,137.000000,,2013-02-28 19:32:00,
2013-02-28 14:42:00,26.0,22.0,-100.00,NW,320,6.0,11.0,84,0.00,,,0.00,137.000000,,2013-02-28 19:42:00,
2013-02-28 14:52:00,26.0,22.0,-100.00,NW,320,6.0,11.0,84,0.00,,,0.00,137.000000,,2013-02-28 19:52:00,
2013-02-28 15:01:00,26.0,22.0,-100.00,NW,320,6.0,11.0,84,0.00,,,0.00,137.000000,,2013-02-28 20:01:00,
2013-02-28 15:32:00,25.0,20.0,-100.00,NW,318,6.0,12.0,80,0.00,,,0.00,161.000000,,2013-02-28 20:32:00,
2013-02-28 15:42:00,25.0,20.0,-100.00,NW,318,6.0,12.0,80,0.00,,,0.00,161.000000,,2013-02-28 20:42:00,
2013-02-28 15:52:00,25.0,20.0,-100.00,NW,318,6.0,12.0,80,0.00,,,0.00,161.000000,,2013-02-28 20:52:00,
2013-02-28 16:02:00,25.0,20.0,-100.00,NW,318,6.0,12.0,80,0.00,,,0.00,161.000000,,2013-02-28 21:02:00,
2013-02-28 16:32:00,26.0,20.0,-100.00,NW,318,5.0,10.0,79,0.00,,,0.00,140.000000,,2013-02-28 21:32:00,
2013-02-28 16:42:00,26.0,20.0,-100.00,NW,318,5.0,10.0,79,0.00,,,0.00,140.000000,,2013-02-28 21:42:00,
2013-02-28 16:52:00,26.0,20.0,-100.00,NW,318,5.0,10.0,79,0.00,,,0.00,140.000000,,2013-02-28 21:52:00,
2013-02-28 17:02:00,26.0,20.0,-100.00,NW,318,5.0,10.0,79,0.00,,,0.00,140.000000,,2013-02-28 22:02:00,
2013-02-28 17:32:00,25.0,19.0,-100.00,NW,311,6.0,14.0,79,0.00,,,0.00,76.000000,,2013-02-28 22:32:00,
2013-02-28 17:42:00,25.0,19.0,-100.00,NW,311,6.0,14.0,79,0.00,,,0.00,76.000000,,2013-02-28 22:42:00,
2013-02-28 17:52:00,25.0,19.0,-100.00,NW,311,6.0,14.0,79,0.00,,,0.00,76.000000,,2013-02-28 22:52:00,
2013-02-28 18:02:00,25.0,19.0,-100.00,NW,311,6.0,14.0,79,0.00,,,0.00,76.000000,,2013-02-28 23:02:00,
2013-02-28 18:32:00,24.0,19.0,-100.00,NW,314,6.0,12.0,81,0.00,,,0.00,25.000000,,2013-02-28 23:32:00,
2013-02-28 18:42:00,24.0,19.0,-100.00,NW,314,6.0,12.0,81,0.00,,,0.00,25.000000,,2013-02-28 23:42:00,
2013-02-28 18:53:00,24.0,19.0,-100.00,NW,314,6.0,12.0,81,0.00,,,0.00,25.000000,,2013-02-28 23:53:00,
2013-02-28 19:02:00,24.0,19.0,-100.00,NW,314,6.0,12.0,81,0.00,,,0.00,25.000000,,2013-03-01 00:02:00,
2013-02-28 19:32:00,22.0,18.0,-100.00,NW,316,7.0,11.0,85,0.00,,,0.00,1.000000,,2013-03-01 00:32:00,
2013-02-28 19:42:00,22.0,18.0,-100.00,NW,316,7.0,11.0,85,0.00,,,0.00,1.000000,,2013-03-01 00:42:00,
2013-02-28 19:52:00,22.0,18.0,-100.00,NW,316,7.0,11.0,85,0.00,,,0.00,1.000000,,2013-03-01 00:52:00,
2013-02-28 20:01:00,22.0,18.0,-100.00,NW,316,7.0,11.0,85,0.00,,,0.00,1.000000,,2013-03-01 01:01:00,
2013-02-28 20:32:00,22.0,19.0,-100.00,NW,314,7.0,12.0,89,0.00,,,0.00,0.000000,,2013-03-01 01:32:00,
2013-02-28 20:42:00,22.0,19.0,-100.00,NW,314,7.0,12.0,89,0.00,,,0.00,0.000000,,2013-03-01 01:42:00,
2013-02-28 20:52:00,22.0,19.0,-100.00,NW,314,7.0,12.0,89,0.00,,,0.00,0.000000,,2013-03-01 01:52:00,
2013-02-28 21:01:00,22.0,19.0,-100.00,NW,314,7.0,12.0,89,0.00,,,0.00,0.000000,,2013-03-01 02:01:00,
2013-02-28 21:32:00,22.0,19.0,-100.00,NW,322,8.0,12.0,89,0.00,,,0.00,0.000000,,2013-03-01 02:32:00,
2013-02-28 21:42:00,22.0,19.0,-100.00,NW,322,8.0,12.0,89,0.00,,,0.00,0.000000,,2013-03-01 02:42:00,
2013-02-28 21:52:00,22.0,19.0,-100.00,NW,322,8.0,12.0,89,0.00,,,0.00,0.000000,,2013-03-01 02:52:00,
2013-02-28 22:02:00,22.0,19.0,-100.00,NW,322,8.0,12.0,89,0.00,,,0.00,0.000000,,2013-03-01 03:02:00,
2013-02-28 22:32:00,22.0,20.0,-100.00,NW,324,8.0,14.0,90,0.00,,,0.00,0.000000,,2013-03-01 03:32:00,
2013-02-28 22:42:00,22.0,20.0,-100.00,NW,324,8.0,14.0,90,0.00,,,0.00,0.000000,,2013-03-01 03:42:00,
2013-02-28 22:52:00,22.0,20.0,-100.00,NW,324,8.0,14.0,90,0.00,,,0.00,0.000000,,2013-03-01 03:52:00,
2013-02-28 23:01:00,22.0,20.0,-100.00,NW,324,8.0,14.0,90,0.00,,,0.00,0.000000,,2013-03-01 04:01:00,
2013-02-28 23:42:00,22.0,20.0,-100.00,NW,309,7.0,19.0,90,0.00,,,0.00,0.000000,,2013-03-01 04:42:00,
2013-02-28 23:52:00,22.0,20.0,-100.00,NW,309,7.0,19.0,90,0.00,,,0.00,0.000000,,2013-03-01 04:52:00,